createdAt,value
2018-04-12T00:01:51.749Z,14.90
2018-04-12T00:04:20.601Z,14.50
2018-04-12T00:06:48.886Z,14.70
2018-04-12T00:09:17.155Z,14.50
2018-04-12T00:11:45.429Z,14.80
2018-04-12T00:14:13.717Z,14.80
2018-04-12T00:16:41.995Z,14.80
2018-04-12T00:19:10.256Z,14.90
2018-04-12T00:21:38.548Z,14.80
2018-04-12T00:24:06.812Z,14.70
2018-04-12T00:26:35.052Z,14.80
2018-04-12T00:29:04.113Z,15.00
2018-04-12T00:31:32.448Z,15.00
2018-04-12T00:34:00.745Z,15.20
2018-04-12T00:36:28.995Z,14.70
2018-04-12T00:38:58.046Z,14.80
2018-04-12T00:41:26.292Z,14.90
2018-04-12T00:43:55.404Z,15.00
2018-04-12T00:46:23.656Z,14.70
2018-04-12T00:48:52.660Z,15.00
2018-04-12T00:51:21.087Z,14.70
2018-04-12T00:54:01.157Z,15.00
2018-04-12T00:56:29.417Z,14.80
2018-04-12T00:58:57.704Z,14.90
2018-04-12T01:01:26.888Z,15.20
2018-04-12T01:03:55.136Z,14.90
2018-04-12T01:06:24.260Z,15.20
2018-04-12T01:08:52.519Z,15.20
2018-04-12T01:11:21.592Z,15.10
2018-04-12T01:13:49.845Z,15.10
2018-04-12T01:16:18.766Z,15.20
2018-04-12T01:18:47.829Z,15.10
2018-04-12T01:21:16.073Z,15.10
2018-04-12T01:23:45.113Z,15.00
2018-04-12T01:26:13.343Z,15.00
2018-04-12T01:28:42.429Z,15.10
2018-04-12T01:31:11.472Z,15.10
2018-04-12T01:33:39.721Z,15.10
2018-04-12T01:36:08.760Z,15.10
2018-04-12T01:38:37.041Z,15.00
2018-04-12T01:41:05.499Z,15.10
2018-04-12T01:43:34.518Z,15.10
2018-04-12T01:46:02.766Z,15.00
2018-04-12T01:48:31.937Z,15.00
2018-04-12T01:51:00.191Z,14.70
2018-04-12T01:53:28.473Z,14.80
2018-04-12T01:55:56.728Z,14.80
2018-04-12T01:58:24.979Z,14.90
2018-04-12T02:00:54.037Z,14.60
2018-04-12T02:03:22.338Z,14.80
2018-04-12T02:05:50.585Z,14.70
2018-04-12T02:08:18.872Z,14.60
2018-04-12T02:10:47.186Z,14.40
2018-04-12T02:13:15.480Z,14.50
2018-04-12T02:15:43.917Z,14.40
2018-04-12T02:18:12.140Z,14.80
2018-04-12T02:20:41.160Z,14.50
2018-04-12T02:23:09.465Z,14.20
2018-04-12T02:25:38.175Z,14.30
2018-04-12T02:28:06.525Z,14.50
2018-04-12T02:30:34.835Z,14.50
2018-04-12T02:33:03.085Z,14.30
2018-04-12T02:35:31.353Z,14.40
2018-04-12T02:38:00.414Z,14.30
2018-04-12T02:40:28.758Z,14.50
2018-04-12T02:42:57.869Z,14.30
2018-04-12T02:45:26.145Z,14.40
2018-04-12T02:47:54.521Z,14.40
2018-04-12T02:50:22.788Z,14.60
2018-04-12T02:52:51.207Z,14.40
2018-04-12T02:55:20.477Z,14.30
2018-04-12T02:57:48.741Z,14.20
2018-04-12T03:00:17.783Z,14.40
2018-04-12T03:02:46.057Z,14.50
2018-04-12T03:05:15.224Z,14.60
2018-04-12T03:07:43.528Z,14.20
2018-04-12T03:10:11.781Z,14.40
2018-04-12T03:12:40.044Z,14.30
2018-04-12T03:15:09.086Z,14.10
2018-04-12T03:17:37.344Z,14.00
2018-04-12T03:20:05.621Z,13.80
2018-04-12T03:22:34.654Z,13.80
2018-04-12T03:25:02.918Z,14.00
2018-04-12T03:27:31.973Z,13.80
2018-04-12T03:30:00.269Z,14.00
2018-04-12T03:32:31.066Z,14.00
2018-04-12T03:34:59.366Z,13.90
2018-04-12T03:37:28.020Z,13.90
2018-04-12T03:39:56.364Z,14.10
2018-04-12T03:42:25.443Z,14.30
2018-04-12T03:44:53.669Z,14.20
2018-04-12T03:47:21.984Z,14.10
2018-04-12T03:49:50.317Z,14.00
2018-04-12T03:52:18.621Z,13.80
2018-04-12T03:54:46.915Z,14.10
2018-04-12T03:57:15.203Z,14.10
2018-04-12T03:59:43.436Z,14.00
2018-04-12T04:02:12.457Z,13.80
2018-04-12T04:04:40.820Z,14.00
2018-04-12T04:07:09.139Z,13.80
2018-04-12T04:09:37.407Z,13.70
2018-04-12T04:12:05.716Z,13.80
2018-04-12T04:14:43.061Z,13.60
2018-04-12T04:17:23.315Z,13.70
2018-04-12T04:20:03.574Z,13.50
2018-04-12T04:22:31.817Z,13.50
2018-04-12T04:25:00.842Z,13.70
2018-04-12T04:27:29.213Z,13.90
2018-04-12T04:29:58.241Z,13.60
2018-04-12T04:32:26.510Z,13.60
2018-04-12T04:34:55.505Z,13.50
2018-04-12T04:37:23.745Z,13.30
2018-04-12T04:39:52.956Z,13.30
2018-04-12T04:42:21.163Z,13.60
2018-04-12T04:44:49.412Z,13.70
2018-04-12T04:47:17.680Z,13.60
2018-04-12T04:49:45.961Z,13.30
2018-04-12T04:52:14.337Z,13.60
2018-04-12T04:54:43.399Z,13.60
2018-04-12T04:57:11.633Z,13.50
2018-04-12T04:59:40.700Z,13.40
2018-04-12T05:02:09.064Z,13.30
2018-04-12T05:04:37.316Z,13.50
2018-04-12T05:07:05.593Z,13.30
2018-04-12T05:09:34.724Z,13.60
2018-04-12T05:12:04.731Z,13.70
2018-04-12T05:14:33.063Z,13.60
2018-04-12T05:17:01.353Z,13.30
2018-04-12T05:19:30.060Z,13.40
2018-04-12T05:21:58.409Z,13.60
2018-04-12T05:24:26.698Z,13.50
2018-04-12T05:26:54.977Z,13.90
2018-04-12T05:29:23.214Z,13.50
2018-04-12T05:31:51.501Z,13.40
2018-04-12T05:34:19.784Z,13.50
2018-04-12T05:36:48.060Z,13.20
2018-04-12T05:39:16.347Z,13.40
2018-04-12T05:41:44.604Z,13.60
2018-04-12T05:44:12.887Z,13.60
2018-04-12T05:46:42.104Z,13.30
2018-04-12T05:49:10.408Z,13.10
2018-04-12T05:51:38.774Z,13.50
2018-04-12T05:54:07.179Z,13.60
2018-04-12T05:56:35.440Z,13.50
2018-04-12T05:59:03.684Z,13.70
2018-04-12T06:01:32.956Z,13.60
2018-04-12T06:04:01.292Z,13.50
2018-04-12T06:06:29.560Z,13.60
2018-04-12T06:08:57.810Z,13.70
2018-04-12T06:11:26.872Z,13.80
2018-04-12T06:13:55.148Z,13.90
2018-04-12T06:16:24.241Z,13.60
2018-04-12T06:18:52.480Z,13.70
2018-04-12T06:21:20.836Z,13.70
2018-04-12T06:23:49.049Z,13.70
2018-04-12T06:26:17.356Z,13.40
2018-04-12T06:28:45.680Z,13.50
2018-04-12T06:31:15.525Z,13.70
2018-04-12T06:33:44.550Z,13.60
2018-04-12T06:36:12.942Z,13.80
2018-04-12T06:38:41.193Z,13.80
2018-04-12T06:41:09.469Z,13.60
2018-04-12T06:43:38.501Z,13.50
2018-04-12T06:46:06.788Z,13.70
2018-04-12T06:48:36.571Z,14.20
2018-04-12T06:51:04.840Z,14.10
2018-04-12T06:53:33.980Z,14.30
2018-04-12T06:56:03.148Z,14.10
2018-04-12T06:58:31.393Z,14.20
2018-04-12T07:00:59.688Z,14.30
2018-04-12T07:03:28.886Z,14.10
2018-04-12T07:05:57.998Z,14.40
2018-04-12T07:08:27.009Z,14.20
2018-04-12T07:10:55.900Z,14.20
2018-04-12T07:13:24.963Z,14.00
2018-04-12T07:15:53.237Z,14.10
2018-04-12T07:18:23.941Z,14.30
2018-04-12T07:20:52.248Z,14.10
2018-04-12T07:23:20.660Z,13.90
2018-04-12T07:25:49.701Z,14.10
2018-04-12T07:28:17.980Z,14.00
2018-04-12T07:30:46.288Z,13.90
2018-04-12T07:33:14.585Z,14.00
2018-04-12T07:35:42.844Z,14.20
2018-04-12T07:38:11.089Z,14.20
2018-04-12T07:40:39.365Z,14.10
2018-04-12T07:43:07.657Z,14.30
2018-04-12T07:45:36.753Z,14.30
2018-04-12T07:48:04.989Z,14.40
2018-04-12T07:50:34.152Z,14.50
2018-04-12T07:53:02.571Z,14.50
2018-04-12T07:55:30.840Z,14.20
2018-04-12T07:57:59.076Z,14.70
2018-04-12T08:00:27.369Z,14.30
2018-04-12T08:02:55.599Z,14.60
2018-04-12T08:05:24.633Z,14.50
2018-04-12T08:07:52.990Z,14.60
2018-04-12T08:10:22.667Z,14.70
2018-04-12T08:12:50.946Z,14.60
2018-04-12T08:15:19.211Z,14.40
2018-04-12T08:17:47.659Z,14.60
2018-04-12T08:20:16.697Z,14.40
2018-04-12T08:22:45.019Z,14.30
2018-04-12T08:25:13.368Z,14.60
2018-04-12T08:27:42.116Z,14.80
2018-04-12T08:30:11.285Z,14.60
2018-04-12T08:32:39.636Z,14.40
2018-04-12T08:35:08.740Z,14.70
2018-04-12T08:37:36.964Z,14.80
2018-04-12T08:40:05.278Z,14.40
2018-04-12T08:42:34.393Z,14.70
2018-04-12T08:45:04.272Z,14.80
2018-04-12T08:47:33.362Z,14.80
2018-04-12T08:50:03.092Z,14.60
2018-04-12T08:52:31.369Z,14.70
2018-04-12T08:54:59.612Z,14.60
2018-04-12T08:57:27.882Z,15.20
2018-04-12T08:59:56.191Z,14.90
2018-04-12T09:02:25.249Z,15.00
2018-04-12T09:04:53.552Z,15.00
2018-04-12T09:07:21.841Z,14.80
2018-04-12T09:09:50.144Z,15.10
2018-04-12T09:12:19.173Z,15.30
2018-04-12T09:14:47.447Z,15.20
2018-04-12T09:17:15.724Z,15.30
2018-04-12T09:19:44.018Z,15.40
2018-04-12T09:22:12.289Z,15.50
2018-04-12T09:24:40.590Z,15.60
2018-04-12T09:27:09.030Z,15.60
2018-04-12T09:29:37.409Z,15.60
2018-04-12T09:32:05.828Z,15.30
2018-04-12T09:34:34.089Z,15.80
2018-04-12T09:37:02.349Z,15.30
2018-04-12T09:39:31.562Z,15.80
2018-04-12T09:41:59.820Z,15.90
2018-04-12T09:44:28.098Z,15.90
2018-04-12T09:46:56.349Z,15.80
2018-04-12T09:49:24.668Z,16.00
2018-04-12T09:51:52.891Z,16.10
2018-04-12T09:54:21.174Z,15.80
2018-04-12T09:56:49.490Z,15.70
2018-04-12T09:59:18.484Z,16.00
2018-04-12T10:01:52.329Z,15.90
2018-04-12T10:04:28.035Z,16.20
2018-04-12T10:07:12.132Z,15.90
2018-04-12T10:09:41.149Z,16.10
2018-04-12T10:12:09.429Z,16.10
2018-04-12T10:14:37.672Z,16.40
2018-04-12T10:17:06.736Z,16.40
2018-04-12T10:19:34.980Z,16.20
2018-04-12T10:22:03.236Z,16.10
2018-04-12T10:24:32.299Z,16.30
2018-04-12T10:27:00.904Z,16.40
2018-04-12T10:29:29.938Z,16.60
2018-04-12T10:31:58.202Z,16.90
2018-04-12T10:34:26.664Z,16.60
2018-04-12T10:36:54.921Z,16.60
2018-04-12T10:39:23.230Z,16.80
2018-04-12T10:41:51.439Z,16.90
2018-04-12T10:44:19.720Z,17.20
2018-04-12T10:46:48.052Z,16.90
2018-04-12T10:49:16.328Z,17.00
2018-04-12T10:51:45.416Z,17.00
2018-04-12T10:54:13.671Z,17.10
2018-04-12T10:56:41.912Z,17.00
2018-04-12T10:59:10.208Z,17.00
2018-04-12T11:01:38.517Z,17.00
2018-04-12T11:04:06.850Z,17.00
2018-04-12T11:06:35.104Z,17.00
2018-04-12T11:09:03.457Z,17.10
2018-04-12T11:11:31.769Z,17.30
2018-04-12T11:14:00.003Z,17.40
2018-04-12T11:16:29.007Z,17.60
2018-04-12T11:18:57.362Z,17.50
2018-04-12T11:21:27.632Z,17.60
2018-04-12T11:23:55.881Z,17.60
2018-04-12T11:26:28.157Z,17.70
2018-04-12T11:28:57.182Z,18.10
2018-04-12T11:31:26.315Z,17.80
2018-04-12T11:36:29.457Z,18.20
2018-04-12T11:38:57.694Z,18.00
2018-04-12T11:41:25.988Z,18.20
2018-04-12T11:43:54.975Z,18.30
2018-04-12T11:46:23.279Z,18.30
2018-04-12T11:48:51.566Z,18.40
2018-04-12T11:51:20.579Z,18.60
2018-04-12T11:53:49.636Z,18.60
2018-04-12T11:56:17.890Z,18.60
2018-04-12T11:58:46.198Z,18.90
2018-04-12T12:01:14.441Z,18.70
2018-04-12T12:03:42.908Z,18.70
2018-04-12T12:06:11.945Z,19.20
2018-04-12T12:08:40.297Z,18.90
2018-04-12T12:11:08.743Z,19.10
2018-04-12T12:13:37.059Z,19.10
2018-04-12T12:16:05.343Z,19.50
2018-04-12T12:18:34.406Z,19.50
2018-04-12T12:21:02.704Z,19.00
2018-04-12T12:23:31.746Z,19.70
2018-04-12T12:26:00.008Z,19.50
2018-04-12T12:28:29.124Z,19.60
2018-04-12T12:30:57.310Z,19.70
2018-04-12T12:33:25.593Z,19.70
2018-04-12T12:35:53.860Z,19.80
2018-04-12T12:38:23.671Z,19.60
2018-04-12T12:40:51.996Z,19.60
2018-04-12T12:43:20.705Z,19.50
2018-04-12T12:45:49.752Z,19.90
2018-04-12T12:48:18.125Z,19.60
2018-04-12T12:50:50.606Z,19.60
2018-04-12T12:53:18.897Z,19.90
2018-04-12T12:55:47.271Z,19.60
2018-04-12T12:58:15.672Z,20.10
2018-04-12T13:00:43.904Z,20.10
2018-04-12T13:03:12.993Z,19.80
2018-04-12T13:05:42.002Z,20.30
2018-04-12T13:08:11.032Z,20.40
2018-04-12T13:10:39.569Z,20.40
2018-04-12T13:13:07.886Z,20.40
2018-04-12T13:15:36.337Z,20.30
2018-04-12T13:18:04.725Z,20.40
2018-04-12T13:20:32.997Z,20.30
2018-04-12T13:23:01.255Z,20.60
2018-04-12T13:25:29.556Z,20.70
2018-04-12T13:27:57.844Z,20.70
2018-04-12T13:30:26.240Z,20.70
2018-04-12T13:32:55.272Z,20.60
2018-04-12T13:35:23.526Z,20.50
2018-04-12T13:37:52.576Z,20.60
2018-04-12T13:40:20.864Z,20.50
2018-04-12T13:42:49.145Z,20.80
2018-04-12T13:45:18.173Z,20.90
2018-04-12T13:47:48.195Z,20.90
2018-04-12T13:50:17.280Z,20.90
2018-04-12T13:52:47.232Z,21.00
2018-04-12T13:55:15.586Z,20.90
2018-04-12T13:57:43.777Z,20.90
2018-04-12T14:00:12.828Z,21.10
2018-04-12T14:02:41.085Z,21.00
2018-04-12T14:05:09.372Z,21.10
2018-04-12T14:07:37.626Z,21.10
2018-04-12T14:10:05.879Z,21.20
2018-04-12T14:12:34.184Z,21.30
2018-04-12T14:15:02.489Z,21.40
2018-04-12T14:17:31.485Z,21.50
2018-04-12T14:19:59.760Z,21.60
2018-04-12T14:22:28.056Z,21.60
2018-04-12T14:24:56.601Z,21.70
2018-04-12T14:27:25.634Z,21.70
2018-04-12T14:29:53.973Z,21.70
2018-04-12T14:32:23.021Z,21.90
2018-04-12T14:34:51.305Z,21.90
2018-04-12T14:37:19.601Z,22.00
2018-04-12T14:39:48.008Z,22.10
2018-04-12T14:42:16.270Z,22.10
2018-04-12T14:44:44.630Z,22.10
2018-04-12T14:47:12.900Z,22.10
2018-04-12T14:49:41.195Z,22.00
2018-04-12T14:52:09.448Z,22.10
2018-04-12T14:54:39.806Z,22.20
2018-04-12T14:57:08.109Z,22.10
2018-04-12T14:59:36.352Z,22.20
2018-04-12T15:02:04.602Z,22.30
2018-04-12T15:04:34.652Z,22.20
2018-04-12T15:07:02.954Z,22.20
2018-04-12T15:09:32.230Z,22.20
2018-04-12T15:12:01.300Z,22.10
2018-04-12T15:14:30.357Z,21.80
2018-04-12T15:16:58.997Z,21.80
2018-04-12T15:19:27.300Z,21.70
2018-04-12T15:21:55.587Z,21.70
2018-04-12T15:24:23.968Z,21.50
2018-04-12T15:26:52.235Z,21.40
2018-04-12T15:29:21.294Z,21.50
2018-04-12T15:31:49.623Z,21.50
2018-04-12T15:34:17.893Z,21.40
2018-04-12T15:36:46.144Z,21.30
2018-04-12T15:39:14.583Z,21.30
2018-04-12T15:41:42.850Z,21.30
2018-04-12T15:44:11.700Z,21.40
2018-04-12T15:46:40.106Z,21.30
2018-04-12T15:49:08.369Z,21.30
2018-04-12T15:51:38.380Z,21.30
2018-04-12T15:54:06.656Z,21.30
2018-04-12T15:56:34.921Z,21.40
2018-04-12T15:59:03.189Z,21.40
2018-04-12T16:01:31.517Z,21.40
2018-04-12T16:04:00.512Z,21.30
2018-04-12T16:06:29.593Z,21.30
2018-04-12T16:08:57.883Z,21.30
2018-04-12T16:11:26.109Z,21.20
2018-04-12T16:13:54.396Z,21.20
2018-04-12T16:16:22.633Z,21.20
2018-04-12T16:18:51.812Z,21.30
2018-04-12T16:21:20.682Z,21.30
2018-04-12T16:23:48.987Z,21.20
2018-04-12T16:26:17.272Z,21.20
2018-04-12T16:28:45.527Z,21.30
2018-04-12T16:31:14.005Z,21.20
2018-04-12T16:33:42.279Z,20.80
2018-04-12T16:36:10.536Z,21.00
2018-04-12T16:38:38.808Z,21.00
2018-04-12T16:41:07.149Z,21.00
2018-04-12T16:43:35.382Z,21.20
2018-04-12T16:46:03.671Z,21.00
2018-04-12T16:48:31.951Z,21.00
2018-04-12T16:51:00.248Z,21.00
2018-04-12T16:53:28.496Z,21.00
2018-04-12T16:55:57.511Z,21.00
2018-04-12T16:58:25.785Z,21.00
2018-04-12T17:00:54.096Z,21.10
2018-04-12T17:03:22.359Z,21.00
2018-04-12T17:05:50.663Z,21.00
2018-04-12T17:08:18.909Z,21.00
2018-04-12T17:10:47.192Z,21.10
2018-04-12T17:13:15.460Z,20.90
2018-04-12T17:15:44.515Z,21.00
2018-04-12T17:18:12.797Z,21.00
2018-04-12T17:20:41.053Z,21.00
2018-04-12T17:23:10.307Z,21.00
2018-04-12T17:25:39.814Z,21.00
2018-04-12T17:28:08.829Z,21.00
2018-04-12T17:30:37.896Z,21.00
2018-04-12T17:33:06.179Z,21.00
2018-04-12T17:35:34.501Z,20.90
2018-04-12T17:38:02.836Z,20.90
2018-04-12T17:40:31.079Z,20.80
2018-04-12T17:42:59.422Z,20.80
2018-04-12T17:45:27.653Z,20.80
2018-04-12T17:47:56.269Z,20.50
2018-04-12T17:50:24.484Z,20.90
2018-04-12T17:52:52.767Z,20.90
2018-04-12T17:55:21.038Z,20.80
2018-04-12T17:57:49.448Z,21.00
2018-04-12T18:00:17.726Z,21.00
2018-04-12T18:02:45.988Z,21.10
2018-04-12T18:05:14.271Z,21.00
2018-04-12T18:07:42.565Z,21.10
2018-04-12T18:10:10.912Z,20.80
2018-04-12T18:12:39.214Z,20.80
2018-04-12T18:15:07.432Z,20.80
2018-04-12T18:17:35.691Z,20.90
2018-04-12T18:20:04.032Z,20.90
2018-04-12T18:22:32.292Z,20.80
2018-04-12T18:25:00.634Z,20.80
2018-04-12T18:27:28.905Z,20.80
2018-04-12T18:29:57.189Z,20.90
2018-04-12T18:32:25.475Z,20.70
2018-04-12T18:34:53.724Z,20.40
2018-04-12T18:37:22.803Z,20.50
2018-04-12T18:39:51.074Z,20.70
2018-04-12T18:42:19.368Z,20.30
2018-04-12T18:44:48.378Z,20.30
2018-04-12T18:47:17.425Z,20.30
2018-04-12T18:49:45.842Z,20.00
2018-04-12T18:52:14.129Z,20.30
2018-04-12T18:54:42.396Z,20.40
2018-04-12T18:57:10.710Z,20.50
2018-04-12T18:59:39.138Z,20.40
2018-04-12T19:02:07.411Z,20.40
2018-04-12T19:04:35.735Z,20.40
2018-04-12T19:07:03.972Z,20.20
2018-04-12T19:09:32.292Z,20.60
2018-04-12T19:12:00.556Z,20.30
2018-04-12T19:14:28.843Z,20.40
2018-04-12T19:16:57.111Z,20.20
2018-04-12T19:19:27.470Z,20.30
2018-04-12T19:21:55.760Z,20.40
2018-04-12T19:24:24.038Z,20.30
2018-04-12T19:26:52.278Z,20.10
2018-04-12T19:29:20.592Z,20.00
2018-04-12T19:31:48.868Z,19.90
2018-04-12T19:34:17.145Z,19.90
2018-04-12T19:36:46.393Z,19.90
2018-04-12T19:39:14.767Z,19.90
2018-04-12T19:41:43.849Z,19.70
2018-04-12T19:44:14.700Z,19.60
2018-04-12T19:46:43.769Z,19.90
2018-04-12T19:49:12.074Z,19.90
2018-04-12T19:51:41.106Z,19.70
2018-04-12T19:54:09.371Z,19.70
2018-04-12T19:56:37.642Z,19.80
2018-04-12T19:59:05.922Z,19.70
2018-04-12T20:01:34.976Z,19.60
2018-04-12T20:04:03.239Z,19.60
2018-04-12T20:06:31.532Z,19.50
2018-04-12T20:08:59.781Z,19.50
2018-04-12T20:11:28.078Z,19.50
2018-04-12T20:13:56.683Z,19.60
2018-04-12T20:16:24.918Z,19.30
2018-04-12T20:18:53.209Z,19.70
2018-04-12T20:21:21.475Z,19.80
2018-04-12T20:23:50.500Z,19.70
2018-04-12T20:26:19.382Z,19.70
2018-04-12T20:28:47.684Z,19.80
2018-04-12T20:31:15.961Z,19.80
2018-04-12T20:33:44.233Z,19.60
2018-04-12T20:36:12.517Z,19.90
2018-04-12T20:38:40.819Z,19.80
2018-04-12T20:41:09.121Z,19.90
2018-04-12T20:43:37.452Z,19.80
2018-04-12T20:46:05.742Z,19.50
2018-04-12T20:48:34.743Z,19.20
2018-04-12T20:51:03.052Z,19.30
2018-04-12T20:53:31.377Z,19.10
2018-04-12T20:56:01.377Z,19.10
2018-04-12T20:58:30.411Z,19.00
2018-04-12T21:00:58.654Z,19.00
2018-04-12T21:03:27.693Z,19.00
2018-04-12T21:05:55.960Z,18.90
2018-04-12T21:08:24.384Z,18.90
2018-04-12T21:10:52.725Z,18.90
2018-04-12T21:13:21.720Z,18.90
2018-04-12T21:15:50.021Z,19.00
2018-04-12T21:18:18.313Z,18.70
2018-04-12T21:20:47.381Z,18.80
2018-04-12T21:23:15.642Z,18.60
2018-04-12T21:25:44.689Z,18.70
2018-04-12T21:28:14.331Z,18.50
2018-04-12T21:30:42.585Z,18.60
2018-04-12T21:33:10.896Z,18.90
2018-04-12T21:35:39.272Z,18.90
2018-04-12T21:38:07.600Z,18.70
2018-04-12T21:40:35.940Z,18.60
2018-04-12T21:43:04.684Z,18.60
2018-04-12T21:45:32.978Z,18.50
2018-04-12T21:48:01.742Z,18.50
2018-04-12T21:50:30.008Z,18.60
2018-04-12T21:52:59.096Z,18.60
2018-04-12T21:55:28.113Z,18.50
2018-04-12T21:57:57.119Z,18.40
2018-04-12T22:00:25.436Z,18.40
2018-04-12T22:02:53.696Z,18.30
2018-04-12T22:05:21.947Z,18.20
2018-04-12T22:07:50.988Z,18.10
2018-04-12T22:10:20.041Z,18.10
2018-04-12T22:12:48.329Z,17.90
2018-04-12T22:15:17.379Z,17.70
2018-04-12T22:17:45.640Z,17.70
2018-04-12T22:20:13.885Z,17.90
2018-04-12T22:22:42.151Z,17.80
2018-04-12T22:25:11.176Z,17.90
2018-04-12T22:27:39.618Z,17.80
2018-04-12T22:30:08.881Z,17.90
2018-04-12T22:32:37.119Z,18.00
2018-04-12T22:35:06.244Z,17.50
2018-04-12T22:37:34.531Z,17.50
2018-04-12T22:40:02.774Z,17.60
2018-04-12T22:42:31.962Z,17.40
2018-04-12T22:45:00.448Z,17.30
2018-04-12T22:47:28.670Z,17.20
2018-04-12T22:49:57.007Z,17.10
2018-04-12T22:52:25.289Z,17.20
2018-04-12T22:54:54.266Z,17.20
2018-04-12T22:57:22.526Z,17.00
2018-04-12T22:59:50.791Z,17.00
2018-04-12T23:02:19.093Z,17.00
2018-04-12T23:04:47.360Z,16.80
2018-04-12T23:07:15.676Z,16.70
2018-04-12T23:09:43.934Z,16.70
2018-04-12T23:12:12.194Z,16.80
2018-04-12T23:14:40.471Z,16.50
2018-04-12T23:17:08.752Z,16.40
2018-04-12T23:19:37.245Z,16.50
2018-04-12T23:22:05.512Z,16.40
2018-04-12T23:24:34.893Z,16.50
2018-04-12T23:27:03.151Z,16.20
2018-04-12T23:29:31.440Z,16.40
2018-04-12T23:32:00.462Z,16.60
2018-04-12T23:34:28.760Z,16.40
2018-04-12T23:36:57.134Z,16.50
2018-04-12T23:39:25.546Z,16.40
2018-04-12T23:41:53.868Z,16.40
2018-04-12T23:44:22.129Z,16.40
2018-04-12T23:46:50.402Z,16.30
2018-04-12T23:49:18.767Z,16.20
2018-04-12T23:51:48.037Z,16.20
2018-04-12T23:54:17.085Z,16.40
2018-04-12T23:56:45.365Z,16.20
2018-04-12T23:59:13.618Z,16.00
